Time;durP1;ratioP1;P1;durP2;ratioP2;P2;SDS_P1;SDS_P2;PMS_P1;PMS_P2;Temp;Humidity;BMP_temperature;BMP_pressure;BME280_temperature;BME280_humidity;BME280_pressure;Samples;Min_cycle;Max_cycle;Signal;HPM_P1;HPM_P2
2023/03/21 00:01:42;;;;;;;50.97;33.70;;;;;;;;;;5108703;28;20215;-83
2023/03/21 00:04:09;;;;;;;51.63;35.17;;;;;;;;;;5089665;28;20245;-83
2023/03/21 00:06:35;;;;;;;49.57;33.30;;;;;;;;;;5077504;28;20184;-83
2023/03/21 00:09:01;;;;;;;52.77;35.33;;;;;;;;;;5083569;28;20180;-82
2023/03/21 00:11:27;;;;;;;48.63;34.10;;;;;;;;;;5085754;28;20275;-83
2023/03/21 00:14:13;;;;;;;53.33;35.50;;;;;;;;;;5099899;28;20479;-82
2023/03/21 00:16:39;;;;;;;51.47;35.20;;;;;;;;;;5104528;28;20183;-81
2023/03/21 00:19:05;;;;;;;55.43;35.87;;;;;;;;;;5087368;28;20204;-81
2023/03/21 00:21:32;;;;;;;52.07;34.00;;;;;;;;;;5102161;28;20224;-82
2023/03/21 00:24:01;;;;;;;58.07;36.00;;;;;;;;;;5079542;28;20261;-81
2023/03/21 00:26:27;;;;;;;60.23;37.53;;;;;;;;;;5081780;28;20898;-82
2023/03/21 00:28:53;;;;;;;60.37;37.37;;;;;;;;;;5091487;28;20215;-82
2023/03/21 00:31:19;;;;;;;61.90;37.97;;;;;;;;;;5088770;28;20221;-82
2023/03/21 00:33:45;;;;;;;58.90;36.53;;;;;;;;;;5089532;28;20186;-81
2023/03/21 00:36:12;;;;;;;59.27;36.87;;;;;;;;;;5088718;28;20195;-81
2023/03/21 00:38:38;;;;;;;60.00;36.90;;;;;;;;;;5087164;28;20295;-83
2023/03/21 00:41:05;;;;;;;60.93;38.87;;;;;;;;;;5099305;28;20180;-82
2023/03/21 00:43:31;;;;;;;62.43;37.37;;;;;;;;;;5088339;28;20180;-81
2023/03/21 00:45:58;;;;;;;58.57;36.73;;;;;;;;;;5094364;28;20251;-82
2023/03/21 00:48:25;;;;;;;56.37;35.90;;;;;;;;;;5078043;28;20245;-82
2023/03/21 00:50:52;;;;;;;61.73;37.63;;;;;;;;;;5084623;28;20187;-82
2023/03/21 00:53:19;;;;;;;53.23;34.97;;;;;;;;;;5091779;28;20274;-82
2023/03/21 00:55:45;;;;;;;50.70;32.50;;;;;;;;;;5087928;28;20211;-81
2023/03/21 00:58:11;;;;;;;53.27;34.97;;;;;;;;;;5077758;28;20196;-81
2023/03/21 01:00:38;;;;;;;54.10;35.33;;;;;;;;;;5074111;28;20649;-81
2023/03/21 01:03:06;;;;;;;57.13;35.70;;;;;;;;;;5095582;28;20255;-82
2023/03/21 01:06:04;;;;;;;60.40;35.50;;;;;;;;;;5082350;28;20195;-82
2023/03/21 01:08:40;;;;;;;62.07;36.37;;;;;;;;;;5080776;28;20642;-84
2023/03/21 01:11:11;;;;;;;55.10;36.17;;;;;;;;;;5089053;28;20285;-82
2023/03/21 01:13:37;;;;;;;54.80;33.90;;;;;;;;;;5087162;28;20278;-82
2023/03/21 01:16:04;;;;;;;59.03;36.43;;;;;;;;;;5087426;28;20626;-82
2023/03/21 01:18:30;;;;;;;53.10;33.27;;;;;;;;;;5081317;28;20216;-84
2023/03/21 01:20:58;;;;;;;49.43;33.27;;;;;;;;;;5096006;28;20293;-81
2023/03/21 01:23:26;;;;;;;51.07;32.87;;;;;;;;;;5085298;28;20187;-81
2023/03/21 01:25:52;;;;;;;54.97;33.70;;;;;;;;;;5083241;28;20516;-83
2023/03/21 01:28:19;;;;;;;47.70;30.57;;;;;;;;;;5086663;28;20374;-82
2023/03/21 01:30:49;;;;;;;47.93;30.03;;;;;;;;;;5103953;28;20560;-82
2023/03/21 01:33:16;;;;;;;45.23;31.10;;;;;;;;;;5083676;28;20183;-81
2023/03/21 01:35:42;;;;;;;47.73;31.70;;;;;;;;;;5103876;28;20517;-82
2023/03/21 01:38:08;;;;;;;59.53;42.60;;;;;;;;;;5097653;28;20215;-82
2023/03/21 01:40:35;;;;;;;74.57;54.00;;;;;;;;;;5077606;28;20188;-81
2023/03/21 01:43:01;;;;;;;61.57;45.83;;;;;;;;;;5105719;28;20171;-81
2023/03/21 01:45:46;;;;;;;46.97;32.60;;;;;;;;;;5089189;28;20207;-81
2023/03/21 01:48:13;;;;;;;49.97;32.13;;;;;;;;;;5102450;28;20194;-82
2023/03/21 01:50:40;;;;;;;47.20;29.77;;;;;;;;;;5087760;28;20213;-83
2023/03/21 01:53:06;;;;;;;47.10;29.17;;;;;;;;;;5080924;28;20638;-82
2023/03/21 01:55:33;;;;;;;46.70;28.50;;;;;;;;;;5106407;28;20294;-81
2023/03/21 01:58:00;;;;;;;46.87;30.83;;;;;;;;;;5093184;28;20681;-82
2023/03/21 02:00:28;;;;;;;49.47;30.87;;;;;;;;;;5083018;28;20192;-82
2023/03/21 02:02:56;;;;;;;50.57;31.20;;;;;;;;;;5088405;28;20313;-82
2023/03/21 02:05:41;;;;;;;50.33;31.87;;;;;;;;;;5105578;28;20266;-83
2023/03/21 02:08:07;;;;;;;46.17;29.87;;;;;;;;;;5104997;28;20183;-82
2023/03/21 02:10:35;;;;;;;47.60;30.93;;;;;;;;;;5087775;28;20558;-82
2023/03/21 02:13:07;;;;;;;50.77;31.13;;;;;;;;;;5084612;28;20699;-82
2023/03/21 02:15:33;;;;;;;48.07;30.90;;;;;;;;;;5094601;28;20187;-81
2023/03/21 02:18:16;;;;;;;45.17;30.80;;;;;;;;;;5075642;28;20216;-82
2023/03/21 02:20:53;;;;;;;48.17;31.20;;;;;;;;;;5077758;28;20690;-84
2023/03/21 02:23:19;;;;;;;49.73;32.00;;;;;;;;;;5084767;28;20184;-81
2023/03/21 02:26:03;;;;;;;50.67;32.30;;;;;;;;;;5086764;28;20216;-81
2023/03/21 02:28:37;;;;;;;53.40;31.73;;;;;;;;;;5077806;28;20677;-81
2023/03/21 02:31:22;;;;;;;45.57;31.57;;;;;;;;;;5085251;28;20180;-81
2023/03/21 02:33:57;;;;;;;54.23;33.10;;;;;;;;;;5090244;28;20188;-83
2023/03/21 02:36:55;;;;;;;57.57;36.13;;;;;;;;;;5084446;28;20195;-84
2023/03/21 02:39:25;;;;;;;60.90;35.50;;;;;;;;;;4985619;28;20226;-82
2023/03/21 02:41:58;;;;;;;56.87;34.63;;;;;;;;;;5011613;28;20262;-84
2023/03/21 02:44:29;;;;;;;57.73;37.43;;;;;;;;;;5005173;28;20314;-82
2023/03/21 02:46:59;;;;;;;57.97;35.80;;;;;;;;;;5003604;28;20211;-82
2023/03/21 02:49:52;;;;;;;58.47;36.57;;;;;;;;;;5003597;28;20207;-82
2023/03/21 02:52:20;;;;;;;70.93;40.73;;;;;;;;;;5005564;28;20289;-82
2023/03/21 02:54:48;;;;;;;61.40;38.30;;;;;;;;;;5005103;28;20202;-83
2023/03/21 02:57:19;;;;;;;52.83;35.77;;;;;;;;;;5005122;28;20705;-83
2023/03/21 02:59:46;;;;;;;59.53;37.27;;;;;;;;;;5009545;28;20692;-82
2023/03/21 03:02:12;;;;;;;50.50;34.97;;;;;;;;;;5012387;28;20282;-83
2023/03/21 03:04:38;;;;;;;56.93;38.60;;;;;;;;;;4993894;28;20183;-84
2023/03/21 03:07:10;;;;;;;52.77;37.50;;;;;;;;;;5009224;28;20183;-85
2023/03/21 03:09:57;;;;;;;72.90;50.70;;;;;;;;;;5005285;28;20207;-82
2023/03/21 03:12:35;;;;;;;67.97;50.93;;;;;;;;;;5005227;28;20186;-82
2023/03/21 03:18:19;;;;;;;86.07;62.43;;;;;;;;;;5103323;28;20276;-82
2023/03/21 03:21:05;;;;;;;83.90;58.10;;;;;;;;;;5092222;28;20604;-82
2023/03/21 03:23:50;;;;;;;85.77;60.67;;;;;;;;;;5091748;28;20195;-82
2023/03/21 03:26:33;;;;;;;93.37;62.80;;;;;;;;;;5092459;28;20191;-82
2023/03/21 03:29:03;;;;;;;83.73;61.43;;;;;;;;;;5092338;28;20700;-82
2023/03/21 03:31:31;;;;;;;69.13;53.87;;;;;;;;;;5093719;28;20656;-82
2023/03/21 03:34:00;;;;;;;69.17;50.30;;;;;;;;;;5094956;28;20271;-83
2023/03/21 03:36:30;;;;;;;55.60;40.87;;;;;;;;;;5115139;28;20186;-82
2023/03/21 03:38:57;;;;;;;58.33;42.63;;;;;;;;;;5090125;28;20223;-83
2023/03/21 03:41:27;;;;;;;68.07;46.73;;;;;;;;;;5092928;28;20229;-83
2023/03/21 03:43:55;;;;;;;66.20;50.87;;;;;;;;;;5111126;28;20180;-83
2023/03/21 03:46:40;;;;;;;66.53;50.67;;;;;;;;;;5096217;28;20179;-82
2023/03/21 03:49:24;;;;;;;69.30;52.63;;;;;;;;;;5096683;28;20183;-83
2023/03/21 03:51:53;;;;;;;71.77;55.57;;;;;;;;;;5094005;28;20248;-82
2023/03/21 03:54:26;;;;;;;69.83;54.60;;;;;;;;;;5096315;28;20241;-82
2023/03/21 03:56:52;;;;;;;83.57;63.87;;;;;;;;;;5092665;28;20183;-82
2023/03/21 03:59:20;;;;;;;85.20;63.23;;;;;;;;;;5093466;28;20676;-83
2023/03/21 04:01:47;;;;;;;70.13;53.80;;;;;;;;;;5095177;28;20183;-82
2023/03/21 04:04:15;;;;;;;71.47;54.37;;;;;;;;;;5095829;28;20658;-82
2023/03/21 04:06:42;;;;;;;73.23;57.63;;;;;;;;;;5113094;28;20217;-82
2023/03/21 04:09:08;;;;;;;83.37;63.77;;;;;;;;;;5084700;28;20192;-82
2023/03/21 04:11:34;;;;;;;92.30;70.13;;;;;;;;;;5089768;28;20580;-83
2023/03/21 04:14:00;;;;;;;80.77;58.90;;;;;;;;;;5106576;28;20266;-82
2023/03/21 04:16:27;;;;;;;54.00;40.63;;;;;;;;;;5110312;28;20287;-82
2023/03/21 04:18:53;;;;;;;56.13;41.00;;;;;;;;;;5093966;28;20255;-83
2023/03/21 04:21:20;;;;;;;52.13;37.93;;;;;;;;;;5091434;28;20634;-83
2023/03/21 04:23:46;;;;;;;50.30;34.73;;;;;;;;;;5110074;28;20657;-82
2023/03/21 04:26:12;;;;;;;41.77;30.63;;;;;;;;;;5091580;28;20271;-84
2023/03/21 04:28:39;;;;;;;42.80;30.13;;;;;;;;;;5083217;28;20184;-82
2023/03/21 04:31:06;;;;;;;46.43;31.10;;;;;;;;;;5093534;28;20709;-84
2023/03/21 04:33:37;;;;;;;49.70;32.77;;;;;;;;;;5114832;28;20187;-82
2023/03/21 04:36:05;;;;;;;45.80;31.37;;;;;;;;;;5095458;28;20295;-82
2023/03/21 04:38:32;;;;;;;57.13;41.23;;;;;;;;;;5095102;28;20615;-84
2023/03/21 04:40:59;;;;;;;56.30;42.53;;;;;;;;;;5109485;28;20232;-81
2023/03/21 04:43:25;;;;;;;60.30;43.37;;;;;;;;;;5093155;28;20700;-82
2023/03/21 04:45:57;;;;;;;63.97;46.97;;;;;;;;;;5111618;28;20176;-82
2023/03/21 04:48:23;;;;;;;70.20;51.03;;;;;;;;;;5094363;28;20214;-81
2023/03/21 04:50:50;;;;;;;64.83;49.77;;;;;;;;;;5093528;28;20171;-81
2023/03/21 04:53:16;;;;;;;81.60;55.83;;;;;;;;;;5093581;28;20187;-84
2023/03/21 04:55:42;;;;;;;73.07;55.33;;;;;;;;;;5109953;28;20251;-81
2023/03/21 04:58:08;;;;;;;71.87;50.53;;;;;;;;;;5111485;28;20291;-81
2023/03/21 05:00:37;;;;;;;59.13;43.97;;;;;;;;;;5095156;28;20176;-82
2023/03/21 05:03:07;;;;;;;56.53;42.50;;;;;;;;;;5094684;28;20172;-82
2023/03/21 05:05:35;;;;;;;52.23;37.33;;;;;;;;;;5109431;28;20187;-81
2023/03/21 05:08:01;;;;;;;49.60;35.90;;;;;;;;;;5094380;28;20183;-82
2023/03/21 05:10:27;;;;;;;48.73;35.87;;;;;;;;;;5109585;28;20783;-82
2023/03/21 05:12:53;;;;;;;49.77;35.27;;;;;;;;;;5093238;28;20191;-82
2023/03/21 05:15:19;;;;;;;54.47;37.47;;;;;;;;;;5090322;28;20550;-82
2023/03/21 05:17:47;;;;;;;44.50;33.93;;;;;;;;;;5094104;28;20187;-81
2023/03/21 05:20:14;;;;;;;51.17;40.37;;;;;;;;;;5109137;28;20239;-84
2023/03/21 05:22:41;;;;;;;53.30;41.50;;;;;;;;;;5093959;28;20186;-84
2023/03/21 05:25:08;;;;;;;53.27;37.50;;;;;;;;;;5093375;28;20186;-84
2023/03/21 05:27:34;;;;;;;57.03;42.37;;;;;;;;;;5103348;28;20172;-84
2023/03/21 05:30:01;;;;;;;60.70;44.57;;;;;;;;;;5080140;28;20185;-82
2023/03/21 05:32:27;;;;;;;62.80;49.23;;;;;;;;;;5088624;28;20193;-82
2023/03/21 05:34:53;;;;;;;58.97;44.90;;;;;;;;;;5089897;28;20182;-82
2023/03/21 05:37:19;;;;;;;54.20;39.30;;;;;;;;;;5093134;28;20167;-81
2023/03/21 05:39:45;;;;;;;48.27;32.27;;;;;;;;;;5111665;28;20211;-82
2023/03/21 05:42:11;;;;;;;42.57;28.50;;;;;;;;;;5108884;28;20661;-82
2023/03/21 05:44:39;;;;;;;38.43;29.60;;;;;;;;;;5107416;28;20188;-83
2023/03/21 05:47:05;;;;;;;40.20;29.63;;;;;;;;;;5108181;28;20262;-83
2023/03/21 05:49:31;;;;;;;48.57;32.60;;;;;;;;;;5090595;28;20656;-81
2023/03/21 05:51:58;;;;;;;46.37;32.13;;;;;;;;;;5110813;28;20618;-83
2023/03/21 05:54:24;;;;;;;62.03;43.70;;;;;;;;;;5093934;28;20207;-81
2023/03/21 05:56:50;;;;;;;72.37;47.90;;;;;;;;;;5091389;28;20233;-81
2023/03/21 05:59:16;;;;;;;64.00;47.13;;;;;;;;;;5087792;28;20553;-81
2023/03/21 06:01:42;;;;;;;63.47;46.30;;;;;;;;;;5092950;28;20180;-83
2023/03/21 06:04:08;;;;;;;64.87;46.27;;;;;;;;;;5091298;28;20188;-81
2023/03/21 06:06:34;;;;;;;66.43;47.57;;;;;;;;;;5085199;28;20179;-81
2023/03/21 06:09:00;;;;;;;59.47;43.13;;;;;;;;;;5089580;28;20557;-81
2023/03/21 06:11:28;;;;;;;60.17;42.63;;;;;;;;;;5092681;28;20260;-80
2023/03/21 06:13:54;;;;;;;63.47;47.03;;;;;;;;;;5091997;28;20187;-81
2023/03/21 06:16:20;;;;;;;69.93;50.43;;;;;;;;;;5091515;28;20172;-81
2023/03/21 06:18:46;;;;;;;65.80;53.77;;;;;;;;;;5092750;28;20212;-80
2023/03/21 06:21:12;;;;;;;78.70;58.93;;;;;;;;;;5091176;28;20235;-80
2023/03/21 06:23:38;;;;;;;73.37;54.97;;;;;;;;;;5087529;28;20171;-81
2023/03/21 06:26:04;;;;;;;71.83;55.13;;;;;;;;;;5103264;28;20548;-81
2023/03/21 06:28:30;;;;;;;66.07;50.40;;;;;;;;;;5089046;28;20233;-83
2023/03/21 06:30:56;;;;;;;62.30;49.33;;;;;;;;;;5091554;28;20237;-86
2023/03/21 06:33:23;;;;;;;60.37;46.83;;;;;;;;;;5108889;28;20180;-82
2023/03/21 06:35:55;;;;;;;59.33;46.10;;;;;;;;;;5108399;28;20197;-82
2023/03/21 06:38:21;;;;;;;58.50;44.50;;;;;;;;;;5091352;28;20253;-82
2023/03/21 06:40:48;;;;;;;46.57;35.80;;;;;;;;;;5092145;28;20262;-82
2023/03/21 06:43:15;;;;;;;45.97;33.90;;;;;;;;;;5089986;28;20274;-82
2023/03/21 06:45:41;;;;;;;45.80;33.83;;;;;;;;;;5110217;28;20175;-82
2023/03/21 06:48:08;;;;;;;45.63;34.40;;;;;;;;;;5092471;28;20318;-83
2023/03/21 06:50:34;;;;;;;42.37;31.33;;;;;;;;;;5092834;28;20187;-83
2023/03/21 06:53:00;;;;;;;44.47;30.67;;;;;;;;;;5087202;28;20184;-83
2023/03/21 06:55:27;;;;;;;39.93;29.40;;;;;;;;;;5108158;28;20187;-86
2023/03/21 06:57:53;;;;;;;40.77;30.00;;;;;;;;;;5087521;28;20164;-84
2023/03/21 07:00:20;;;;;;;38.50;25.73;;;;;;;;;;5092966;28;20580;-83
2023/03/21 07:02:46;;;;;;;39.77;27.00;;;;;;;;;;5092762;28;20183;-83
2023/03/21 07:05:12;;;;;;;35.03;24.97;;;;;;;;;;5092966;28;20209;-82
2023/03/21 07:07:39;;;;;;;31.07;23.87;;;;;;;;;;5094066;28;20676;-82
2023/03/21 07:10:05;;;;;;;28.63;22.97;;;;;;;;;;5096548;28;20171;-82
2023/03/21 07:12:33;;;;;;;29.47;21.07;;;;;;;;;;5113482;28;20228;-82
2023/03/21 07:15:00;;;;;;;27.40;21.47;;;;;;;;;;5096555;28;20176;-83
2023/03/21 07:17:26;;;;;;;29.60;21.23;;;;;;;;;;5096741;28;20176;-82
2023/03/21 07:19:52;;;;;;;26.37;21.70;;;;;;;;;;5095164;28;20295;-82
2023/03/21 07:22:18;;;;;;;30.27;20.97;;;;;;;;;;5094681;28;20662;-84
2023/03/21 07:24:47;;;;;;;25.97;20.30;;;;;;;;;;5114596;28;20171;-81
2023/03/21 07:27:13;;;;;;;24.90;18.83;;;;;;;;;;5093098;28;20185;-85
2023/03/21 07:29:40;;;;;;;27.53;19.20;;;;;;;;;;5089965;28;20545;-84
2023/03/21 07:32:06;;;;;;;21.90;17.93;;;;;;;;;;5094631;28;20184;-85
2023/03/21 07:34:32;;;;;;;22.07;18.00;;;;;;;;;;5094783;28;20214;-84
2023/03/21 07:36:59;;;;;;;26.63;18.63;;;;;;;;;;5114303;28;20164;-84
2023/03/21 07:39:26;;;;;;;25.13;19.03;;;;;;;;;;5094848;28;20646;-85
2023/03/21 07:41:54;;;;;;;23.23;17.83;;;;;;;;;;5085395;28;20188;-84
2023/03/21 07:44:20;;;;;;;22.00;17.20;;;;;;;;;;5097353;28;20586;-85
2023/03/21 07:46:46;;;;;;;24.13;16.97;;;;;;;;;;5092832;28;20191;-84
2023/03/21 07:49:12;;;;;;;21.67;16.63;;;;;;;;;;5094576;28;20172;-84
2023/03/21 07:51:38;;;;;;;19.90;15.20;;;;;;;;;;5111530;28;20171;-83
2023/03/21 07:54:05;;;;;;;19.53;15.30;;;;;;;;;;5091079;28;20187;-83
2023/03/21 07:56:31;;;;;;;19.07;15.67;;;;;;;;;;5111054;28;20186;-83
2023/03/21 07:58:58;;;;;;;19.97;16.43;;;;;;;;;;5088843;28;20567;-83
2023/03/21 08:01:24;;;;;;;18.83;15.70;;;;;;;;;;5094666;28;20187;-83
2023/03/21 08:03:52;;;;;;;21.37;15.63;;;;;;;;;;5095688;28;20176;-84
2023/03/21 08:06:18;;;;;;;19.87;15.57;;;;;;;;;;5092545;28;20222;-83
2023/03/21 08:08:45;;;;;;;20.07;15.27;;;;;;;;;;5095109;28;20188;-84
2023/03/21 08:11:11;;;;;;;17.00;14.17;;;;;;;;;;5095509;28;20225;-84
2023/03/21 08:13:37;;;;;;;22.77;14.03;;;;;;;;;;5093668;28;20199;-85
2023/03/21 08:16:04;;;;;;;16.00;13.87;;;;;;;;;;5096685;28;20582;-82
2023/03/21 08:18:30;;;;;;;16.53;13.57;;;;;;;;;;5092433;28;20200;-83
2023/03/21 08:20:57;;;;;;;16.47;13.83;;;;;;;;;;5093738;28;20223;-83
2023/03/21 08:23:23;;;;;;;17.77;14.90;;;;;;;;;;5110377;28;20192;-84
2023/03/21 08:25:55;;;;;;;16.73;13.83;;;;;;;;;;5093958;28;20181;-84
2023/03/21 08:28:22;;;;;;;14.87;12.63;;;;;;;;;;5078054;28;20187;-83
2023/03/21 08:30:48;;;;;;;13.97;12.47;;;;;;;;;;5082244;28;20173;-84
2023/03/21 08:33:14;;;;;;;14.90;12.67;;;;;;;;;;5091587;28;20186;-84
2023/03/21 08:35:41;;;;;;;14.67;12.70;;;;;;;;;;5105934;28;20190;-84
2023/03/21 08:38:07;;;;;;;15.97;13.87;;;;;;;;;;5091876;28;20290;-83
2023/03/21 08:40:33;;;;;;;17.30;14.33;;;;;;;;;;5093196;28;20176;-83
2023/03/21 08:42:59;;;;;;;14.13;12.63;;;;;;;;;;5095233;28;20179;-84
2023/03/21 08:45:26;;;;;;;12.73;11.23;;;;;;;;;;5092116;28;20527;-83
2023/03/21 08:47:52;;;;;;;13.10;11.07;;;;;;;;;;5111337;28;20189;-83
2023/03/21 08:50:20;;;;;;;14.60;11.80;;;;;;;;;;5094949;28;20637;-83
2023/03/21 08:52:46;;;;;;;18.37;15.07;;;;;;;;;;5088526;28;20526;-84
2023/03/21 08:55:13;;;;;;;20.00;15.77;;;;;;;;;;5094713;28;20180;-84
2023/03/21 08:57:39;;;;;;;14.70;13.17;;;;;;;;;;5090258;28;20189;-83
2023/03/21 09:00:09;;;;;;;13.10;10.90;;;;;;;;;;5107022;28;20234;-84
2023/03/21 09:02:36;;;;;;;11.73;10.20;;;;;;;;;;5084199;28;20198;-85
2023/03/21 09:05:03;;;;;;;21.07;17.87;;;;;;;;;;5109183;28;20550;-84
2023/03/21 09:07:32;;;;;;;20.93;18.83;;;;;;;;;;5092598;28;20179;-84
2023/03/21 09:09:59;;;;;;;17.20;15.27;;;;;;;;;;5093724;28;20199;-85
2023/03/21 09:12:25;;;;;;;13.80;11.80;;;;;;;;;;5091851;28;20180;-84
2023/03/21 09:14:52;;;;;;;19.67;13.80;;;;;;;;;;5092671;28;20543;-83
2023/03/21 09:17:18;;;;;;;14.37;12.70;;;;;;;;;;5094325;28;20206;-84
2023/03/21 09:19:46;;;;;;;12.93;11.60;;;;;;;;;;5107836;28;20235;-84
2023/03/21 09:22:13;;;;;;;17.93;16.03;;;;;;;;;;5094774;28;20168;-84
2023/03/21 09:24:40;;;;;;;15.93;13.20;;;;;;;;;;5109890;28;20179;-85
2023/03/21 09:27:07;;;;;;;13.60;10.43;;;;;;;;;;5092848;28;20190;-84
2023/03/21 09:29:34;;;;;;;14.13;11.97;;;;;;;;;;5109766;28;20187;-83
2023/03/21 09:32:03;;;;;;;15.63;12.93;;;;;;;;;;5108405;28;20207;-84
2023/03/21 09:34:29;;;;;;;23.17;15.07;;;;;;;;;;5088153;28;20197;-83
2023/03/21 09:36:55;;;;;;;17.43;13.90;;;;;;;;;;5093552;28;20263;-84
2023/03/21 09:39:22;;;;;;;17.33;15.37;;;;;;;;;;5108593;28;20207;-84
2023/03/21 09:41:57;;;;;;;11.90;9.80;;;;;;;;;;5092333;28;20183;-85
2023/03/21 09:44:24;;;;;;;11.07;9.63;;;;;;;;;;5088366;28;20217;-84
2023/03/21 09:46:54;;;;;;;10.53;9.47;;;;;;;;;;5088491;28;20238;-84
2023/03/21 09:49:30;;;;;;;11.70;10.50;;;;;;;;;;5074965;28;20184;-83
2023/03/21 09:51:57;;;;;;;13.53;10.20;;;;;;;;;;5084076;28;20785;-84
2023/03/21 09:54:32;;;;;;;10.53;9.40;;;;;;;;;;5104729;28;20191;-83
2023/03/21 09:57:00;;;;;;;11.17;9.27;;;;;;;;;;5106040;28;20213;-83
2023/03/21 09:59:26;;;;;;;12.30;10.83;;;;;;;;;;5103562;28;20669;-83
2023/03/21 10:01:54;;;;;;;12.67;9.97;;;;;;;;;;5105112;28;20552;-83
2023/03/21 10:04:21;;;;;;;12.03;9.53;;;;;;;;;;5084235;28;20229;-83
2023/03/21 10:06:52;;;;;;;16.23;11.17;;;;;;;;;;5104736;28;20172;-85
2023/03/21 10:09:22;;;;;;;14.13;11.20;;;;;;;;;;5082020;28;20523;-83
2023/03/21 10:11:54;;;;;;;13.20;11.57;;;;;;;;;;5097939;28;20179;-84
2023/03/21 10:14:20;;;;;;;17.53;14.17;;;;;;;;;;5084097;28;20183;-84
2023/03/21 10:16:48;;;;;;;15.90;14.17;;;;;;;;;;5087297;28;20208;-83
2023/03/21 10:19:16;;;;;;;13.10;11.63;;;;;;;;;;5085994;28;20705;-83
2023/03/21 10:21:45;;;;;;;15.27;12.67;;;;;;;;;;5088177;28;20190;-83
2023/03/21 10:24:16;;;;;;;15.20;12.00;;;;;;;;;;5086279;28;20190;-84
2023/03/21 10:26:43;;;;;;;14.00;11.60;;;;;;;;;;5084320;28;20184;-83
2023/03/21 10:29:12;;;;;;;17.90;13.47;;;;;;;;;;5086158;28;20329;-83
2023/03/21 10:31:39;;;;;;;13.87;11.80;;;;;;;;;;5090572;28;20553;-83
2023/03/21 10:34:13;;;;;;;14.10;11.90;;;;;;;;;;5101129;28;20203;-83
2023/03/21 10:36:39;;;;;;;19.23;13.00;;;;;;;;;;5087465;28;20686;-83
2023/03/21 10:39:07;;;;;;;18.97;16.17;;;;;;;;;;5087275;28;20491;-83
2023/03/21 10:41:33;;;;;;;20.60;16.60;;;;;;;;;;5105069;28;20249;-82
2023/03/21 10:44:06;;;;;;;12.53;11.23;;;;;;;;;;5080308;28;20535;-84
2023/03/21 10:46:32;;;;;;;13.90;12.40;;;;;;;;;;5089424;28;20181;-83
2023/03/21 10:48:58;;;;;;;16.77;14.87;;;;;;;;;;5106025;28;20176;-82
2023/03/21 10:51:32;;;;;;;17.87;15.73;;;;;;;;;;5102784;28;20179;-81
2023/03/21 10:54:00;;;;;;;17.83;15.83;;;;;;;;;;5103626;28;20919;-82
2023/03/21 10:56:28;;;;;;;17.97;14.50;;;;;;;;;;5103073;28;20187;-81
2023/03/21 10:59:21;;;;;;;18.47;14.90;;;;;;;;;;5077213;28;20733;-83
2023/03/21 11:01:52;;;;;;;19.97;17.70;;;;;;;;;;5087217;28;20207;-82
2023/03/21 11:04:21;;;;;;;19.83;16.33;;;;;;;;;;5082613;28;20184;-81
2023/03/21 11:07:09;;;;;;;17.17;13.00;;;;;;;;;;5093467;28;20175;-82
2023/03/21 11:09:48;;;;;;;11.57;10.27;;;;;;;;;;5082320;28;20184;-81
2023/03/21 11:12:18;;;;;;;11.47;10.27;;;;;;;;;;5100748;28;20179;-83
2023/03/21 11:14:52;;;;;;;10.63;8.77;;;;;;;;;;5100545;28;20203;-82
2023/03/21 11:17:19;;;;;;;7.80;7.00;;;;;;;;;;5104319;28;20172;-83
2023/03/21 11:19:52;;;;;;;7.13;6.43;;;;;;;;;;5079797;28;20240;-82
2023/03/21 11:22:20;;;;;;;8.10;7.30;;;;;;;;;;5050962;28;20213;-82
2023/03/21 11:24:56;;;;;;;6.53;5.87;;;;;;;;;;5047762;28;20182;-83
2023/03/21 11:27:28;;;;;;;8.63;7.13;;;;;;;;;;5054562;28;20208;-82
2023/03/21 11:29:54;;;;;;;6.90;6.20;;;;;;;;;;5058779;28;20187;-81
2023/03/21 11:32:25;;;;;;;6.40;5.63;;;;;;;;;;5056439;28;20242;-82
2023/03/21 11:34:59;;;;;;;8.60;6.97;;;;;;;;;;5053503;28;20209;-82
2023/03/21 11:37:40;;;;;;;8.20;7.40;;;;;;;;;;5053365;28;20219;-83
2023/03/21 11:40:19;;;;;;;7.83;7.03;;;;;;;;;;5065799;28;20626;-83
2023/03/21 11:42:50;;;;;;;9.37;7.30;;;;;;;;;;5047777;28;20272;-83
2023/03/21 11:45:30;;;;;;;8.93;7.53;;;;;;;;;;5046993;28;20691;-82
2023/03/21 11:47:57;;;;;;;7.30;6.60;;;;;;;;;;5053510;28;20658;-82
2023/03/21 11:50:32;;;;;;;9.57;8.67;;;;;;;;;;5060530;28;20256;-81
2023/03/21 11:53:17;;;;;;;12.00;10.80;;;;;;;;;;5054886;28;20197;-82
2023/03/21 11:56:12;;;;;;;13.43;12.03;;;;;;;;;;5065257;28;20187;-81
2023/03/21 11:58:50;;;;;;;13.73;12.33;;;;;;;;;;4980813;28;20247;-82
2023/03/21 12:01:35;;;;;;;10.60;9.50;;;;;;;;;;4979714;28;20195;-82
2023/03/21 12:04:21;;;;;;;9.50;8.13;;;;;;;;;;4999492;28;20199;-80
2023/03/21 12:06:56;;;;;;;9.47;7.47;;;;;;;;;;5006983;28;20214;-82
2023/03/21 12:09:29;;;;;;;8.43;7.63;;;;;;;;;;4990991;28;20273;-82
2023/03/21 12:12:02;;;;;;;9.57;7.37;;;;;;;;;;5006802;28;20681;-83
2023/03/21 12:14:37;;;;;;;7.83;6.40;;;;;;;;;;4979365;28;20202;-83
2023/03/21 12:17:13;;;;;;;6.73;6.03;;;;;;;;;;4990076;28;20271;-84
2023/03/21 12:19:39;;;;;;;6.67;5.90;;;;;;;;;;5010614;28;20238;-84
2023/03/21 12:22:15;;;;;;;6.27;5.67;;;;;;;;;;5016578;28;20669;-84
2023/03/21 12:24:51;;;;;;;6.57;5.37;;;;;;;;;;5017828;28;20221;-83
2023/03/21 12:27:36;;;;;;;5.73;5.13;;;;;;;;;;5019685;28;20190;-83
2023/03/21 12:30:25;;;;;;;6.33;5.60;;;;;;;;;;5022057;28;20222;-83
2023/03/21 12:33:09;;;;;;;6.97;6.37;;;;;;;;;;5019207;28;20729;-83
2023/03/21 12:35:45;;;;;;;6.77;6.17;;;;;;;;;;5036237;28;20233;-84
2023/03/21 12:38:29;;;;;;;7.37;6.67;;;;;;;;;;5049754;28;20271;-84
2023/03/21 12:41:12;;;;;;;7.10;6.40;;;;;;;;;;5064496;28;20322;-84
2023/03/21 12:43:38;;;;;;;7.10;6.40;;;;;;;;;;5070066;28;20784;-84
2023/03/21 12:46:13;;;;;;;9.93;8.93;;;;;;;;;;5065726;28;20185;-83
2023/03/21 12:48:43;;;;;;;8.93;8.03;;;;;;;;;;5059395;28;20940;-83
2023/03/21 12:51:13;;;;;;;8.17;7.37;;;;;;;;;;5065131;28;20205;-84
2023/03/21 12:53:42;;;;;;;15.40;10.63;;;;;;;;;;5064351;28;20182;-83
2023/03/21 12:56:20;;;;;;;8.17;7.30;;;;;;;;;;5051943;28;20228;-83
2023/03/21 12:58:51;;;;;;;8.13;7.30;;;;;;;;;;5056499;28;20349;-83
2023/03/21 13:01:20;;;;;;;10.37;8.47;;;;;;;;;;5065455;28;20666;-83
2023/03/21 13:03:59;;;;;;;6.70;6.00;;;;;;;;;;5064686;28;20189;-83
2023/03/21 13:06:26;;;;;;;6.47;5.47;;;;;;;;;;5068915;28;20192;-83
2023/03/21 13:09:10;;;;;;;5.57;5.07;;;;;;;;;;5070412;28;20189;-83
2023/03/21 13:11:37;;;;;;;7.37;4.93;;;;;;;;;;5052345;28;20216;-82
2023/03/21 13:14:06;;;;;;;7.50;6.13;;;;;;;;;;5060640;28;20177;-83
2023/03/21 13:16:56;;;;;;;5.97;5.37;;;;;;;;;;5069761;28;20177;-83
2023/03/21 13:19:28;;;;;;;7.53;6.73;;;;;;;;;;5063767;28;20220;-83
2023/03/21 13:22:03;;;;;;;8.37;7.57;;;;;;;;;;5086447;28;20187;-83
2023/03/21 13:24:32;;;;;;;8.63;7.80;;;;;;;;;;5085509;28;20974;-82
2023/03/21 13:27:05;;;;;;;10.10;8.10;;;;;;;;;;5090499;28;20523;-83
2023/03/21 13:29:48;;;;;;;9.63;8.60;;;;;;;;;;5101978;28;20181;-84
2023/03/21 13:32:50;;;;;;;8.53;7.37;;;;;;;;;;5074177;28;20188;-84
2023/03/21 13:35:26;;;;;;;9.10;8.13;;;;;;;;;;5028674;28;20184;-84
2023/03/21 13:37:55;;;;;;;8.70;7.80;;;;;;;;;;5042498;28;20615;-84
2023/03/21 13:40:26;;;;;;;11.73;9.13;;;;;;;;;;5026358;28;20210;-82
2023/03/21 13:42:55;;;;;;;11.23;10.13;;;;;;;;;;5032553;28;20432;-84
2023/03/21 13:45:30;;;;;;;14.50;12.50;;;;;;;;;;5028496;28;20644;-83
2023/03/21 13:47:58;;;;;;;13.23;11.80;;;;;;;;;;5028329;28;20264;-83
2023/03/21 13:50:26;;;;;;;12.73;9.80;;;;;;;;;;5027889;28;20308;-84
2023/03/21 13:53:04;;;;;;;11.53;9.70;;;;;;;;;;5021161;28;21205;-85
2023/03/21 13:55:36;;;;;;;8.53;7.63;;;;;;;;;;5028384;28;20204;-83
2023/03/21 13:58:21;;;;;;;9.53;7.97;;;;;;;;;;5027903;28;20197;-84
2023/03/21 14:01:04;;;;;;;9.60;7.73;;;;;;;;;;5032106;28;20309;-84
2023/03/21 14:03:34;;;;;;;6.83;5.67;;;;;;;;;;5028506;28;20701;-84
2023/03/21 14:06:02;;;;;;;7.27;6.57;;;;;;;;;;5048197;28;20192;-84
2023/03/21 14:08:31;;;;;;;6.83;5.73;;;;;;;;;;5039909;28;20210;-84
2023/03/21 14:10:58;;;;;;;5.77;5.27;;;;;;;;;;5090590;28;20201;-84
2023/03/21 14:13:25;;;;;;;8.10;4.47;;;;;;;;;;5087272;28;20187;-83
2023/03/21 14:15:53;;;;;;;5.70;4.77;;;;;;;;;;5086804;28;20596;-83
2023/03/21 14:18:20;;;;;;;6.03;4.43;;;;;;;;;;5084064;28;20176;-84
2023/03/21 14:20:51;;;;;;;6.53;5.00;;;;;;;;;;5086303;28;20555;-83
2023/03/21 14:23:17;;;;;;;7.73;4.47;;;;;;;;;;5090629;28;20598;-83
2023/03/21 14:25:46;;;;;;;6.80;5.00;;;;;;;;;;5090035;28;20658;-84
2023/03/21 14:28:14;;;;;;;5.63;4.73;;;;;;;;;;5077944;28;20322;-82
2023/03/21 14:30:41;;;;;;;5.80;5.30;;;;;;;;;;5089632;28;20184;-83
2023/03/21 14:33:13;;;;;;;5.90;5.30;;;;;;;;;;5088553;28;20191;-84
2023/03/21 14:35:40;;;;;;;5.73;5.23;;;;;;;;;;5090073;28;20229;-83
2023/03/21 14:38:07;;;;;;;6.73;5.03;;;;;;;;;;5091625;28;20176;-84
2023/03/21 14:40:34;;;;;;;5.40;4.80;;;;;;;;;;5106790;28;20175;-83
2023/03/21 14:43:04;;;;;;;6.40;5.70;;;;;;;;;;5088661;28;20194;-83